ONX weather

Enrique Adolfo Jimenez Airport
Colón, Colón Province, Panama

Public forecast

Using degrees Celsius for public forecast. Weather courtesy of forecast.io.

Current aviation weather report (METAR) for Enrique Adolfo Jimenez Airport

Report is more than 6 hours old.

Retrieved 2020/01/13 19:00 UTC (15 days ago):

MPEJ 131900Z 03012KT 9999 SCT018 30/25 Q1011

Closest aviation forecast (TAF) to Enrique Adolfo Jimenez Airport

Closest forecast is Marcos A. Gelabert International Airport, 29.5 nm (54.7 km) SE. Retrieved 2020/01/28 12:15 UTC (4 hours ago):

TAF MPMG 281100Z 2812/2824 33006KT 9999 SCT018 TEMPO 2820/2822 34014KT